createdAt,value
2018-08-06T00:00:28.757Z,94.90
2018-08-06T00:02:57.313Z,94.70
2018-08-06T00:05:25.824Z,94.90
2018-08-06T00:07:54.283Z,95.20
2018-08-06T00:10:24.480Z,94.70
2018-08-06T00:12:53.001Z,95.50
2018-08-06T00:15:21.537Z,95.50
2018-08-06T00:17:50.036Z,95.50
2018-08-06T00:20:18.589Z,95.30
2018-08-06T00:22:47.066Z,95.00
2018-08-06T00:25:16.574Z,95.20
2018-08-06T00:27:45.385Z,95.60
2018-08-06T00:30:16.917Z,95.40
2018-08-06T00:32:46.244Z,95.80
2018-08-06T00:35:15.035Z,95.80
2018-08-06T00:37:43.564Z,95.90
2018-08-06T00:40:14.568Z,96.50
2018-08-06T00:42:43.896Z,96.40
2018-08-06T00:45:14.445Z,97.40
2018-08-06T00:47:43.145Z,97.90
2018-08-06T00:50:12.252Z,98.10
2018-08-06T00:52:40.691Z,98.30
2018-08-06T00:55:11.542Z,98.70
2018-08-06T00:57:40.435Z,99.10
2018-08-06T01:00:11.469Z,99.60
2018-08-06T01:02:39.994Z,99.40
2018-08-06T01:05:09.878Z,99.70
2018-08-06T01:07:39.045Z,99.90
2018-08-06T01:10:09.807Z,99.90
2018-08-06T01:12:39.392Z,99.90
2018-08-06T01:15:09.068Z,99.90
2018-08-06T01:17:37.544Z,99.90
2018-08-06T01:20:07.160Z,99.90
2018-08-06T01:22:35.652Z,99.90
2018-08-06T01:25:04.236Z,99.90
2018-08-06T01:27:32.841Z,99.90
2018-08-06T01:30:01.269Z,99.90
2018-08-06T01:32:29.750Z,99.90
2018-08-06T01:34:58.193Z,99.90
2018-08-06T01:37:26.675Z,99.90
2018-08-06T01:39:55.179Z,99.90
2018-08-06T01:42:23.761Z,99.90
2018-08-06T01:44:52.235Z,99.90
2018-08-06T01:47:20.719Z,99.90
2018-08-06T01:49:49.624Z,99.90
2018-08-06T01:52:18.114Z,99.90
2018-08-06T01:54:46.557Z,99.90
2018-08-06T01:57:15.030Z,99.90
2018-08-06T01:59:43.560Z,99.90
2018-08-06T02:02:12.068Z,99.90
2018-08-06T02:04:40.500Z,99.90
2018-08-06T02:07:09.330Z,99.90
2018-08-06T02:09:37.926Z,99.90
2018-08-06T02:12:06.953Z,99.90
2018-08-06T02:14:36.304Z,99.90
2018-08-06T02:17:04.856Z,99.90
2018-08-06T02:19:33.368Z,99.90
2018-08-06T02:22:01.878Z,99.90
2018-08-06T02:24:30.334Z,99.90
2018-08-06T02:26:58.773Z,99.90
2018-08-06T02:29:27.258Z,99.90
2018-08-06T02:31:55.717Z,99.90
2018-08-06T02:34:24.213Z,99.90
2018-08-06T02:36:52.641Z,99.90
2018-08-06T02:39:21.125Z,99.90
2018-08-06T02:41:49.584Z,99.90
2018-08-06T02:44:18.081Z,99.90
2018-08-06T02:46:46.562Z,99.90
2018-08-06T02:49:15.056Z,99.90
2018-08-06T02:51:43.560Z,99.90
2018-08-06T02:54:11.997Z,99.90
2018-08-06T02:56:40.476Z,99.90
2018-08-06T02:59:08.920Z,99.90
2018-08-06T03:01:37.413Z,99.90
2018-08-06T03:04:06.014Z,99.90
2018-08-06T03:06:34.462Z,99.90
2018-08-06T03:09:03.030Z,99.90
2018-08-06T03:11:31.506Z,99.90
2018-08-06T03:13:59.961Z,99.90
2018-08-06T03:16:28.425Z,99.90
2018-08-06T03:18:56.886Z,99.90
2018-08-06T03:21:25.365Z,99.90
2018-08-06T03:23:53.805Z,99.90
2018-08-06T03:26:22.282Z,99.90
2018-08-06T03:28:50.805Z,99.90
2018-08-06T03:31:19.318Z,99.90
2018-08-06T03:33:47.789Z,99.90
2018-08-06T03:38:44.377Z,99.90
2018-08-06T03:41:12.841Z,99.90
2018-08-06T03:43:41.313Z,99.90
2018-08-06T03:46:09.740Z,99.90
2018-08-06T03:48:38.181Z,99.90
2018-08-06T03:51:06.632Z,99.90
2018-08-06T03:53:35.134Z,99.90
2018-08-06T03:56:03.620Z,99.90
2018-08-06T03:58:32.061Z,99.90
2018-08-06T04:01:00.501Z,99.90
2018-08-06T04:03:28.974Z,99.90
2018-08-06T04:05:57.408Z,99.90
2018-08-06T04:08:25.873Z,99.90
2018-08-06T04:13:22.532Z,99.90
2018-08-06T04:15:50.953Z,99.90
2018-08-06T04:18:19.393Z,99.90
2018-08-06T04:20:47.840Z,99.90
2018-08-06T04:23:16.285Z,99.90
2018-08-06T04:25:44.767Z,99.90
2018-08-06T04:28:13.225Z,99.90
2018-08-06T04:30:41.696Z,99.90
2018-08-06T04:33:10.163Z,99.90
2018-08-06T04:35:38.615Z,99.90
2018-08-06T04:38:07.100Z,99.90
2018-08-06T04:40:35.566Z,99.90
2018-08-06T04:43:04.026Z,99.90
2018-08-06T04:45:32.546Z,99.90
2018-08-06T04:48:01.001Z,99.90
2018-08-06T04:50:29.471Z,99.90
2018-08-06T04:52:57.904Z,99.90
2018-08-06T04:55:26.327Z,99.90
2018-08-06T04:57:54.789Z,99.90
2018-08-06T05:00:23.235Z,99.90
2018-08-06T05:02:51.716Z,99.90
2018-08-06T05:05:20.184Z,99.90
2018-08-06T05:07:48.628Z,99.90
2018-08-06T05:10:17.076Z,99.90
2018-08-06T05:12:45.532Z,99.90
2018-08-06T05:15:14.052Z,99.90
2018-08-06T05:17:42.508Z,99.90
2018-08-06T05:20:10.986Z,99.90
2018-08-06T05:22:39.465Z,99.90
2018-08-06T05:25:07.964Z,99.90
2018-08-06T05:27:36.396Z,99.90
2018-08-06T05:30:07.361Z,99.90
2018-08-06T05:32:35.865Z,99.90
2018-08-06T05:35:04.821Z,99.90
2018-08-06T05:37:33.352Z,99.90
2018-08-06T05:40:01.926Z,99.90
2018-08-06T05:42:30.274Z,96.20
2018-08-06T05:44:58.716Z,92.30
2018-08-06T05:47:27.196Z,90.20
2018-08-06T05:49:55.644Z,87.10
2018-08-06T05:52:24.129Z,81.00
2018-08-06T05:54:52.609Z,78.30
2018-08-06T05:57:21.134Z,72.30
2018-08-06T05:59:49.589Z,71.50
2018-08-06T06:02:18.069Z,69.00
2018-08-06T06:04:46.569Z,62.40
2018-08-06T06:07:15.080Z,57.60
2018-08-06T06:09:43.553Z,57.70
2018-08-06T06:12:12.051Z,57.40
2018-08-06T06:14:40.537Z,58.90
2018-08-06T06:17:09.053Z,58.80
2018-08-06T06:19:37.531Z,58.50
2018-08-06T06:22:06.021Z,58.20
2018-08-06T06:24:34.488Z,57.10
2018-08-06T06:27:03.034Z,53.90
2018-08-06T06:29:31.549Z,52.20
2018-08-06T06:32:00.018Z,52.70
2018-08-06T06:34:28.537Z,53.00
2018-08-06T06:36:56.945Z,51.40
2018-08-06T06:39:25.396Z,53.10
2018-08-06T06:41:53.897Z,53.00
2018-08-06T06:44:22.393Z,53.50
2018-08-06T06:46:50.887Z,51.80
2018-08-06T06:49:19.428Z,49.70
2018-08-06T06:51:47.850Z,49.10
2018-08-06T06:54:16.392Z,47.10
2018-08-06T06:56:44.800Z,45.50
2018-08-06T06:59:13.302Z,43.70
2018-08-06T07:01:41.761Z,45.10
2018-08-06T07:04:10.302Z,42.20
2018-08-06T07:06:38.808Z,38.60
2018-08-06T07:09:09.818Z,39.60
2018-08-06T07:11:38.294Z,38.10
2018-08-06T07:14:06.856Z,36.30
2018-08-06T07:16:35.341Z,35.60
2018-08-06T07:19:03.882Z,37.10
2018-08-06T07:21:32.294Z,36.30
2018-08-06T07:24:00.741Z,35.90
2018-08-06T07:26:29.321Z,36.10
2018-08-06T07:28:57.784Z,34.70
2018-08-06T07:31:26.233Z,33.80
2018-08-06T07:33:54.716Z,32.80
2018-08-06T07:36:23.225Z,33.20
2018-08-06T07:38:51.723Z,35.00
2018-08-06T07:41:20.338Z,34.10
2018-08-06T07:43:48.771Z,32.60
2018-08-06T07:46:17.277Z,32.20
2018-08-06T07:48:45.788Z,30.40
2018-08-06T07:51:14.261Z,31.20
2018-08-06T07:53:42.718Z,32.80
2018-08-06T07:56:11.192Z,32.60
2018-08-06T07:58:39.690Z,30.00
2018-08-06T08:01:08.190Z,29.90
2018-08-06T08:03:36.665Z,29.60
2018-08-06T08:06:05.170Z,29.40
2018-08-06T08:11:01.797Z,29.60
2018-08-06T08:13:30.262Z,29.20
2018-08-06T08:15:58.720Z,29.40
2018-08-06T08:18:27.232Z,29.30
2018-08-06T08:20:55.738Z,30.00
2018-08-06T08:23:24.200Z,29.20
2018-08-06T08:25:52.693Z,27.50
2018-08-06T08:28:21.173Z,25.60
2018-08-06T08:30:49.733Z,24.90
2018-08-06T08:33:18.174Z,26.20
2018-08-06T08:35:46.641Z,27.90
2018-08-06T08:38:15.131Z,29.20
2018-08-06T08:40:43.573Z,28.20
2018-08-06T08:43:12.036Z,28.60
2018-08-06T08:45:40.575Z,29.00
2018-08-06T08:48:09.041Z,28.10
2018-08-06T08:50:37.542Z,26.40
2018-08-06T08:53:06.073Z,27.10
2018-08-06T08:55:34.618Z,27.00
2018-08-06T08:58:03.117Z,27.60
2018-08-06T09:00:31.616Z,28.30
2018-08-06T09:03:00.104Z,29.80
2018-08-06T09:05:28.597Z,27.10
2018-08-06T09:07:57.099Z,25.40
2018-08-06T09:10:25.601Z,25.20
2018-08-06T09:12:54.045Z,23.60
2018-08-06T09:15:24.541Z,23.60
2018-08-06T09:17:53.072Z,23.40
2018-08-06T09:20:21.757Z,23.80
2018-08-06T09:22:50.224Z,23.50
2018-08-06T09:25:18.781Z,22.40
2018-08-06T09:27:48.740Z,23.00
2018-08-06T09:30:19.599Z,23.00
2018-08-06T09:32:50.218Z,23.10
2018-08-06T09:35:19.321Z,24.50
2018-08-06T09:37:47.781Z,25.80
2018-08-06T09:40:17.619Z,26.20
2018-08-06T09:42:47.028Z,27.30
2018-08-06T09:45:16.707Z,28.10
2018-08-06T09:47:46.497Z,28.50
2018-08-06T09:50:15.804Z,28.00
2018-08-06T09:52:45.329Z,27.20
2018-08-06T09:55:17.520Z,25.90
2018-08-06T09:57:46.456Z,23.10
2018-08-06T10:00:21.702Z,22.30
2018-08-06T10:02:51.089Z,22.50
2018-08-06T10:05:20.821Z,22.50
2018-08-06T10:07:49.343Z,21.90
2018-08-06T10:10:17.850Z,21.80
2018-08-06T10:12:46.760Z,21.00
2018-08-06T10:15:15.636Z,21.20
2018-08-06T10:17:45.159Z,19.90
2018-08-06T10:20:16.882Z,19.10
2018-08-06T10:22:45.436Z,18.00
2018-08-06T10:25:14.761Z,17.60
2018-08-06T10:27:44.081Z,18.70
2018-08-06T10:30:14.444Z,18.90
2018-08-06T10:32:43.096Z,19.60
2018-08-06T10:35:12.885Z,18.60
2018-08-06T10:37:41.381Z,18.60
2018-08-06T10:40:15.113Z,17.00
2018-08-06T10:42:44.262Z,16.70
2018-08-06T10:45:14.909Z,15.40
2018-08-06T10:47:43.453Z,15.60
2018-08-06T10:50:12.277Z,16.40
2018-08-06T10:52:40.767Z,16.20
2018-08-06T10:55:10.264Z,15.60
2018-08-06T10:57:40.056Z,15.70
2018-08-06T11:00:11.311Z,15.60
2018-08-06T11:02:39.848Z,14.80
2018-08-06T11:05:09.897Z,14.40
2018-08-06T11:07:38.504Z,14.50
2018-08-06T11:10:10.039Z,15.90
2018-08-06T11:12:39.250Z,16.30
2018-08-06T11:15:11.810Z,16.90
2018-08-06T11:20:10.800Z,14.40
2018-08-06T11:27:38.465Z,13.40
2018-08-06T11:42:29.660Z,13.50
2018-08-06T11:44:58.093Z,13.40
2018-08-06T12:22:02.504Z,10.50
2018-08-06T12:24:31.004Z,10.60
2018-08-06T12:29:28.129Z,12.00
2018-08-06T12:34:25.088Z,13.90
2018-08-06T12:36:53.559Z,14.20
2018-08-06T12:41:50.155Z,13.40
2018-08-06T12:54:12.033Z,12.50
2018-08-06T12:56:40.481Z,13.30
2018-08-06T12:59:08.982Z,13.40
2018-08-06T13:01:37.477Z,13.10
2018-08-06T13:16:27.120Z,12.40
2018-08-06T13:18:55.696Z,12.70
2018-08-06T13:21:24.196Z,12.60
2018-08-06T13:23:52.709Z,13.20
2018-08-06T13:26:21.238Z,13.30
2018-08-06T13:28:49.849Z,13.20
2018-08-06T13:33:46.519Z,13.10
2018-08-06T13:36:14.989Z,13.30
2018-08-06T13:38:43.490Z,13.80
2018-08-06T13:41:11.969Z,13.60
2018-08-06T13:43:40.405Z,14.10
2018-08-06T13:46:08.907Z,13.70
2018-08-06T13:48:37.358Z,13.90
2018-08-06T13:51:05.889Z,13.90
2018-08-06T13:53:34.415Z,14.20
2018-08-06T13:56:02.970Z,14.30
2018-08-06T13:58:31.425Z,14.50
2018-08-06T14:00:59.914Z,14.20
2018-08-06T14:08:25.155Z,14.10
2018-08-06T14:10:53.588Z,14.10
2018-08-06T14:13:22.072Z,14.60
2018-08-06T14:15:50.523Z,14.00
2018-08-06T14:20:47.335Z,13.70
2018-08-06T14:23:15.801Z,14.10
2018-08-06T14:25:44.305Z,14.40
2018-08-06T14:33:09.111Z,14.40
2018-08-06T14:40:34.005Z,14.40
2018-08-06T14:45:30.613Z,14.20
2018-08-06T14:50:27.237Z,14.40
2018-08-06T14:52:55.752Z,15.00
2018-08-06T14:55:24.331Z,15.00
2018-08-06T14:57:52.842Z,14.90
2018-08-06T15:00:22.345Z,15.10
2018-08-06T15:05:20.430Z,15.50
2018-08-06T15:12:45.475Z,15.70
2018-08-06T15:20:13.845Z,15.40
2018-08-06T15:22:42.342Z,16.20
2018-08-06T15:25:14.461Z,16.30
2018-08-06T15:27:43.286Z,16.40
2018-08-06T15:30:11.845Z,16.00
2018-08-06T15:32:40.340Z,16.50
2018-08-06T15:35:09.767Z,16.30
2018-08-06T15:37:39.288Z,16.30
2018-08-06T15:40:16.761Z,16.60
2018-08-06T15:42:45.305Z,16.60
2018-08-06T15:45:14.329Z,16.90
2018-08-06T15:47:43.686Z,16.60
2018-08-06T15:50:19.369Z,16.90
2018-08-06T15:52:47.936Z,16.50
2018-08-06T15:55:16.462Z,17.00
2018-08-06T15:57:44.993Z,16.90
2018-08-06T16:00:15.972Z,17.00
2018-08-06T16:02:45.049Z,17.20
2018-08-06T16:05:14.517Z,17.30
2018-08-06T16:10:12.137Z,17.80
2018-08-06T16:12:40.841Z,17.10
2018-08-06T16:15:11.036Z,17.60
2018-08-06T16:17:40.342Z,17.50
2018-08-06T16:20:10.992Z,17.30
2018-08-06T16:22:40.172Z,17.60
2018-08-06T16:25:09.457Z,17.60
2018-08-06T16:27:38.032Z,17.80
2018-08-06T16:30:15.963Z,18.60
2018-08-06T16:32:45.222Z,17.80
2018-08-06T16:35:13.730Z,17.90
2018-08-06T16:40:11.373Z,17.80
2018-08-06T16:42:39.917Z,18.10
2018-08-06T16:45:09.112Z,18.80
2018-08-06T16:47:38.376Z,18.10
2018-08-06T16:52:36.262Z,17.90
2018-08-06T16:55:05.645Z,17.90
2018-08-06T16:57:34.109Z,18.20
2018-08-06T17:00:02.656Z,18.40
2018-08-06T17:02:31.145Z,18.10
2018-08-06T17:04:59.685Z,18.20
2018-08-06T17:07:28.145Z,18.10
2018-08-06T17:09:56.747Z,17.90
2018-08-06T17:12:25.231Z,18.50
2018-08-06T17:14:53.724Z,18.70
2018-08-06T17:19:50.376Z,18.90
2018-08-06T17:22:18.947Z,19.40
2018-08-06T17:24:47.353Z,19.00
2018-08-06T17:32:12.174Z,19.20
2018-08-06T17:34:40.608Z,19.10
2018-08-06T17:37:09.108Z,19.10
2018-08-06T17:42:05.841Z,18.90
2018-08-06T17:47:02.734Z,19.80
2018-08-06T17:49:31.227Z,20.30
2018-08-06T17:51:59.813Z,20.00
2018-08-06T17:54:28.267Z,19.60
2018-08-06T17:56:56.777Z,19.10
2018-08-06T17:59:25.221Z,19.00
2018-08-06T18:01:53.705Z,18.90
2018-08-06T18:04:22.182Z,19.10
2018-08-06T18:06:50.633Z,19.20
2018-08-06T18:09:19.105Z,19.40
2018-08-06T18:11:47.602Z,19.70
2018-08-06T18:14:16.038Z,19.80
2018-08-06T18:16:44.473Z,19.40
2018-08-06T18:19:12.948Z,19.60
2018-08-06T18:21:41.413Z,19.80
2018-08-06T18:24:09.895Z,19.60
2018-08-06T18:26:38.359Z,19.90
2018-08-06T18:29:06.822Z,20.60
2018-08-06T18:31:35.344Z,19.90
2018-08-06T18:34:03.838Z,20.00
2018-08-06T18:36:32.309Z,20.00
2018-08-06T18:39:00.754Z,20.20
2018-08-06T18:41:29.213Z,20.60
2018-08-06T18:43:57.720Z,20.90
2018-08-06T18:46:26.172Z,20.60
2018-08-06T18:48:54.689Z,20.70
2018-08-06T18:51:23.189Z,21.00
2018-08-06T18:53:51.633Z,21.70
2018-08-06T18:56:20.101Z,22.20
2018-08-06T18:58:48.548Z,22.30
2018-08-06T19:01:17.053Z,22.90
2018-08-06T19:03:45.567Z,23.50
2018-08-06T19:06:14.053Z,23.60
2018-08-06T19:08:42.526Z,23.80
2018-08-06T19:11:10.997Z,24.20
2018-08-06T19:13:44.713Z,24.30
2018-08-06T19:16:13.337Z,24.20
2018-08-06T19:18:47.297Z,24.20
2018-08-06T19:21:15.780Z,25.10
2018-08-06T19:23:44.291Z,24.60
2018-08-06T19:26:12.798Z,24.80
2018-08-06T19:28:41.311Z,24.80
2018-08-06T19:31:17.107Z,25.00
2018-08-06T19:33:45.642Z,25.40
2018-08-06T19:36:14.104Z,25.40
2018-08-06T19:38:42.549Z,25.80
2018-08-06T19:41:11.072Z,25.40
2018-08-06T19:43:39.916Z,25.20
2018-08-06T19:46:08.985Z,26.10
2018-08-06T19:48:37.555Z,26.10
2018-08-06T19:51:06.021Z,25.50
2018-08-06T19:53:34.495Z,25.80
2018-08-06T19:56:08.252Z,26.20
2018-08-06T20:01:04.894Z,26.70
2018-08-06T20:03:33.533Z,26.10
2018-08-06T20:08:30.179Z,27.60
2018-08-06T20:10:58.733Z,27.10
2018-08-06T20:13:27.241Z,27.40
2018-08-06T20:18:23.996Z,27.10
2018-08-06T20:20:52.472Z,27.40
2018-08-06T20:23:20.978Z,27.20
2018-08-06T20:25:49.780Z,27.70
2018-08-06T20:28:18.254Z,27.80
2018-08-06T20:30:47.645Z,28.10
2018-08-06T20:33:16.140Z,27.70
2018-08-06T20:38:12.727Z,28.00
2018-08-06T20:40:41.199Z,28.30
2018-08-06T20:43:09.744Z,28.30
2018-08-06T20:45:38.205Z,28.40
2018-08-06T20:50:34.873Z,28.90
2018-08-06T20:53:03.366Z,28.50
2018-08-06T20:55:31.889Z,29.10
2018-08-06T20:58:00.363Z,29.00
2018-08-06T21:00:28.864Z,29.40
2018-08-06T21:02:57.425Z,29.70
2018-08-06T21:07:54.009Z,29.50
2018-08-06T21:10:22.598Z,29.30
2018-08-06T21:12:51.066Z,29.10
2018-08-06T21:15:19.559Z,29.00
2018-08-06T21:17:48.095Z,29.10
2018-08-06T21:20:17.972Z,29.20
2018-08-06T21:22:47.600Z,29.50
2018-08-06T21:25:16.451Z,29.40
2018-08-06T21:27:46.214Z,29.60
2018-08-06T21:30:16.880Z,29.90
2018-08-06T21:32:51.328Z,30.00
2018-08-06T21:35:20.601Z,30.30
2018-08-06T21:40:19.116Z,30.80
2018-08-06T21:42:47.980Z,31.00
2018-08-06T21:45:16.521Z,31.40
2018-08-06T21:47:45.250Z,31.50
2018-08-06T21:50:14.261Z,31.90
2018-08-06T21:52:42.756Z,32.30
2018-08-06T21:55:11.508Z,33.20
2018-08-06T21:57:40.109Z,32.40
2018-08-06T22:00:31.827Z,32.70
2018-08-06T22:03:00.512Z,33.10
2018-08-06T22:05:28.986Z,33.10
2018-08-06T22:07:57.473Z,33.50
2018-08-06T22:10:26.093Z,33.20
2018-08-06T22:12:54.581Z,33.60
2018-08-06T22:17:51.174Z,35.50
2018-08-06T22:20:19.628Z,36.00
2018-08-06T22:22:48.111Z,37.30
2018-08-06T22:25:16.633Z,38.40
2018-08-06T22:30:13.253Z,39.50
2018-08-06T22:35:12.069Z,39.10
2018-08-06T22:37:41.242Z,39.40
2018-08-06T22:40:11.648Z,39.50
2018-08-06T22:45:10.053Z,39.80
2018-08-06T22:50:08.648Z,40.50
2018-08-06T22:52:37.472Z,40.10
2018-08-06T22:57:34.398Z,41.30
2018-08-06T23:00:04.142Z,41.20
2018-08-06T23:02:32.593Z,41.80
2018-08-06T23:07:29.213Z,41.90
2018-08-06T23:09:57.734Z,42.50
2018-08-06T23:12:26.249Z,43.10
2018-08-06T23:14:54.733Z,44.90
2018-08-06T23:17:23.188Z,45.10
2018-08-06T23:19:51.705Z,47.70
2018-08-06T23:22:20.185Z,45.60
2018-08-06T23:24:48.636Z,47.00
2018-08-06T23:27:17.092Z,46.90
2018-08-06T23:29:45.561Z,48.20
2018-08-06T23:32:14.010Z,49.70
2018-08-06T23:34:42.478Z,49.10
2018-08-06T23:37:10.940Z,48.60
2018-08-06T23:39:39.467Z,50.90
2018-08-06T23:44:36.052Z,50.30
2018-08-06T23:47:04.633Z,49.50
2018-08-06T23:49:33.104Z,49.40
2018-08-06T23:52:01.609Z,50.00
2018-08-06T23:54:30.107Z,50.90
2018-08-06T23:56:58.576Z,52.10
2018-08-06T23:59:27.092Z,53.10
